Terminal Aerodrome Forecast
Issued by NWS Northern Indiana

Home | Current Version | Previous Version | Graphics & Text | Print | Product List | Glossary On
Versions: 1 2 3 4 5 6 7 8 9 10 11 12 13
000
FTUS43 KIWX 242337
TAFFWA
TAF
KFWA 242337Z 2500/2524 03005KT 6SM BR VCSH OVC012
      TEMPO 2501/2504 -DZ BR OVC008
     FM250400 01005KT 4SM BR OVC007
     FM251300 34010KT P6SM SCT015 BKN035
     FM251600 34011G18KT P6SM SCT040=

USA.gov is the U.S. government's official web portal to all federal, state and local government web resources and services.